Time;durP1;ratioP1;P1;durP2;ratioP2;P2;SDS_P1;SDS_P2;PMS_P1;PMS_P2;Temp;Humidity;BMP_temperature;BMP_pressure;BME280_temperature;BME280_humidity;BME280_pressure;Samples;Min_cycle;Max_cycle;Signal;HPM_P1;HPM_P2
2023/09/09 00:00:09;;;;;;;0.50;0.30;;;20.60;99.90;;;;;;5074793;28;20438;-82
2023/09/09 00:02:37;;;;;;;0.50;0.30;;;20.50;99.90;;;;;;5073933;28;20476;-82
2023/09/09 00:05:04;;;;;;;0.50;0.30;;;20.50;99.90;;;;;;5073991;28;20470;-82
2023/09/09 00:07:31;;;;;;;0.50;0.30;;;20.40;99.90;;;;;;5074397;28;20444;-82
2023/09/09 00:09:57;;;;;;;0.50;0.33;;;20.30;99.90;;;;;;5069888;28;20445;-82
2023/09/09 00:12:25;;;;;;;0.50;0.30;;;20.30;99.90;;;;;;5068113;28;20446;-83
2023/09/09 00:14:53;;;;;;;0.50;0.30;;;20.20;99.90;;;;;;5072522;28;20993;-82
2023/09/09 00:17:20;;;;;;;0.50;0.30;;;20.20;99.90;;;;;;5072982;28;20450;-82
2023/09/09 00:19:49;;;;;;;0.50;0.30;;;20.20;99.90;;;;;;5072526;28;20442;-81
2023/09/09 00:22:17;;;;;;;0.50;0.30;;;20.10;99.90;;;;;;5072834;28;20532;-82
2023/09/09 00:24:43;;;;;;;2.53;2.43;;;20.10;99.90;;;;;;5072003;28;20528;-78
2023/09/09 00:27:11;;;;;;;2.20;2.00;;;20.10;99.90;;;;;;5072964;28;20447;-82
2023/09/09 00:29:39;;;;;;;0.50;0.30;;;20.00;99.90;;;;;;5072701;28;20478;-81
2023/09/09 00:32:06;;;;;;;0.50;0.40;;;20.00;99.90;;;;;;5072805;28;20450;-82
2023/09/09 00:34:34;;;;;;;1.37;1.27;;;20.00;99.90;;;;;;5072269;28;20996;-82
2023/09/09 00:37:03;;;;;;;0.50;0.30;;;20.00;99.90;;;;;;5073067;28;20443;-80
2023/09/09 00:39:30;;;;;;;0.50;0.30;;;19.90;99.90;;;;;;5073417;28;20451;-82
2023/09/09 00:41:56;;;;;;;0.50;0.30;;;19.90;99.90;;;;;;5056491;28;20471;-82
2023/09/09 00:44:23;;;;;;;0.50;0.30;;;19.80;99.90;;;;;;5073125;28;20816;-82
2023/09/09 00:46:52;;;;;;;0.50;0.30;;;19.80;99.90;;;;;;5073015;28;20922;-82
2023/09/09 00:49:19;;;;;;;0.50;0.30;;;19.70;99.90;;;;;;5072128;28;20526;-82
2023/09/09 00:51:46;;;;;;;0.50;0.30;;;19.70;99.90;;;;;;5073102;28;20439;-82
2023/09/09 00:54:13;;;;;;;0.50;0.30;;;19.70;99.90;;;;;;5067479;28;20469;-82
2023/09/09 00:56:40;;;;;;;0.50;0.30;;;19.70;99.90;;;;;;5071056;28;20459;-82
2023/09/09 00:59:07;;;;;;;0.50;0.30;;;19.70;99.90;;;;;;5073450;28;20442;-82
2023/09/09 01:01:34;;;;;;;0.50;0.30;;;19.60;99.90;;;;;;5072813;28;20566;-80
2023/09/09 01:04:02;;;;;;;0.50;0.30;;;19.60;99.90;;;;;;5072649;28;20443;-82
2023/09/09 01:06:29;;;;;;;0.50;0.30;;;19.60;99.90;;;;;;5073630;28;20447;-82
2023/09/09 01:08:56;;;;;;;0.50;0.40;;;19.60;99.90;;;;;;5073222;28;20444;-82
2023/09/09 01:11:23;;;;;;;0.50;0.30;;;19.60;99.90;;;;;;5073396;28;20454;-82
2023/09/09 01:13:50;;;;;;;0.50;0.30;;;19.60;99.90;;;;;;5072854;28;20447;-82
2023/09/09 01:16:17;;;;;;;0.50;0.40;;;19.50;99.90;;;;;;5073180;28;20453;-82
2023/09/09 01:18:43;;;;;;;0.50;0.40;;;19.50;99.90;;;;;;5072645;28;20449;-82
2023/09/09 01:21:14;;;;;;;0.50;0.40;;;19.50;99.90;;;;;;5073003;28;20821;-82
2023/09/09 01:23:42;;;;;;;0.50;0.30;;;19.40;99.90;;;;;;5072195;28;20480;-82
2023/09/09 01:26:09;;;;;;;0.50;0.30;;;19.40;99.90;;;;;;5072620;28;20829;-82
2023/09/09 01:28:36;;;;;;;0.50;0.30;;;19.30;99.90;;;;;;5072826;28;20434;-81
2023/09/09 01:31:03;;;;;;;0.50;0.30;;;19.30;99.90;;;;;;5073158;28;20486;-82
2023/09/09 01:33:30;;;;;;;0.50;0.30;;;19.20;99.90;;;;;;5072656;28;20463;-83
2023/09/09 01:35:57;;;;;;;0.50;0.30;;;19.20;99.90;;;;;;5072373;28;20843;-82
2023/09/09 01:38:24;;;;;;;0.50;0.40;;;19.20;99.90;;;;;;5072131;28;20451;-82
2023/09/09 01:40:52;;;;;;;0.50;0.30;;;19.20;99.90;;;;;;5071538;28;20439;-83
2023/09/09 01:43:18;;;;;;;0.60;0.57;;;19.20;99.90;;;;;;5071426;28;20475;-83
2023/09/09 01:45:45;;;;;;;0.50;0.30;;;19.20;99.90;;;;;;5071702;28;20465;-80
2023/09/09 01:48:12;;;;;;;0.50;0.40;;;19.20;99.90;;;;;;5072745;28;20446;-82
2023/09/09 01:50:39;;;;;;;0.50;0.30;;;19.20;99.90;;;;;;5072414;28;20443;-81
2023/09/09 01:53:05;;;;;;;0.50;0.30;;;19.20;99.90;;;;;;5072025;28;20435;-82
2023/09/09 01:55:32;;;;;;;0.50;0.30;;;19.10;99.90;;;;;;5071880;28;20819;-81
2023/09/09 01:58:00;;;;;;;0.50;0.30;;;19.10;99.90;;;;;;5071617;28;20439;-82
2023/09/09 02:00:28;;;;;;;0.50;0.30;;;19.00;99.90;;;;;;5072534;28;20449;-82
2023/09/09 02:02:55;;;;;;;0.50;0.30;;;19.00;99.90;;;;;;5071154;28;20841;-82
2023/09/09 02:05:22;;;;;;;0.50;0.40;;;18.90;99.90;;;;;;5071870;28;20939;-82
2023/09/09 02:07:48;;;;;;;0.50;0.33;;;18.90;99.90;;;;;;5071916;28;20446;-81
2023/09/09 02:10:15;;;;;;;0.50;0.43;;;18.90;99.90;;;;;;5071765;28;20529;-82
2023/09/09 02:12:42;;;;;;;0.50;0.40;;;18.80;99.90;;;;;;5071669;28;20446;-81
2023/09/09 02:15:13;;;;;;;0.50;0.30;;;18.80;99.90;;;;;;5071464;28;20477;-82
2023/09/09 02:17:39;;;;;;;0.50;0.40;;;18.80;99.90;;;;;;5072118;28;20446;-82
2023/09/09 02:20:09;;;;;;;0.50;0.30;;;18.80;99.90;;;;;;5071812;28;20437;-82
2023/09/09 02:22:36;;;;;;;0.50;0.30;;;18.70;99.90;;;;;;5071439;28;20481;-82
2023/09/09 02:25:03;;;;;;;0.50;0.30;;;18.70;99.90;;;;;;5070400;28;20468;-81
2023/09/09 02:27:30;;;;;;;0.50;0.30;;;18.70;99.90;;;;;;5071472;28;20482;-82
2023/09/09 02:29:57;;;;;;;0.50;0.30;;;18.70;99.90;;;;;;5070994;28;20890;-81
2023/09/09 02:32:25;;;;;;;0.50;0.30;;;18.60;99.90;;;;;;5071748;28;20446;-80
2023/09/09 02:34:52;;;;;;;0.50;0.30;;;18.60;99.90;;;;;;5072866;28;20492;-82
2023/09/09 02:37:20;;;;;;;0.50;0.30;;;18.60;99.90;;;;;;5075675;28;20437;-82
2023/09/09 02:39:47;;;;;;;0.50;0.40;;;18.50;99.90;;;;;;5075250;28;20438;-82
2023/09/09 02:42:16;;;;;;;0.50;0.30;;;18.50;99.90;;;;;;5075768;28;20446;-81
2023/09/09 02:44:43;;;;;;;0.50;0.30;;;18.50;99.90;;;;;;5074764;28;20550;-81
2023/09/09 02:47:12;;;;;;;0.50;0.40;;;18.40;99.90;;;;;;5075737;28;20818;-82
2023/09/09 02:49:41;;;;;;;0.50;0.30;;;18.40;99.90;;;;;;5075503;28;20953;-82
2023/09/09 02:52:08;;;;;;;0.50;0.30;;;18.40;99.90;;;;;;5075109;28;20448;-81
2023/09/09 02:54:36;;;;;;;0.50;0.40;;;18.40;99.90;;;;;;5074753;28;20498;-82
2023/09/09 02:57:03;;;;;;;0.50;0.30;;;18.40;99.90;;;;;;5074996;28;20524;-82
2023/09/09 02:59:30;;;;;;;0.50;0.30;;;18.40;99.90;;;;;;5075461;28;20532;-82
2023/09/09 03:01:57;;;;;;;0.50;0.30;;;18.30;99.90;;;;;;5075267;28;20446;-82
2023/09/09 03:04:24;;;;;;;0.50;0.30;;;18.30;99.90;;;;;;5074772;28;20482;-82
2023/09/09 03:06:52;;;;;;;0.50;0.30;;;18.30;99.90;;;;;;5074870;28;20448;-81
2023/09/09 03:09:20;;;;;;;0.50;0.33;;;18.30;99.90;;;;;;5076239;28;20537;-82
2023/09/09 03:11:47;;;;;;;0.50;0.40;;;18.20;99.90;;;;;;5076042;28;20438;-82
2023/09/09 03:14:14;;;;;;;0.50;0.30;;;18.20;99.90;;;;;;5075455;28;20464;-82
2023/09/09 03:16:41;;;;;;;0.50;0.30;;;18.20;99.90;;;;;;5075878;28;20437;-82
2023/09/09 03:19:07;;;;;;;0.50;0.30;;;18.20;99.90;;;;;;5075286;28;20878;-82
2023/09/09 03:21:34;;;;;;;0.50;0.33;;;18.20;99.90;;;;;;5075243;28;20438;-82
2023/09/09 03:24:02;;;;;;;0.50;0.30;;;18.30;99.90;;;;;;5074582;28;20478;-82
2023/09/09 03:26:31;;;;;;;0.50;0.40;;;18.40;99.90;;;;;;5075793;28;20445;-82
2023/09/09 03:28:58;;;;;;;0.50;0.40;;;18.50;99.90;;;;;;5075217;28;20452;-82
2023/09/09 03:31:25;;;;;;;0.50;0.30;;;18.60;99.90;;;;;;5075631;28;20445;-82
2023/09/09 03:33:52;;;;;;;0.50;0.40;;;18.60;99.90;;;;;;5074265;28;20440;-82
2023/09/09 03:36:19;;;;;;;0.50;0.30;;;18.60;99.90;;;;;;5075425;28;20549;-82
2023/09/09 03:38:45;;;;;;;0.50;0.30;;;18.60;99.90;;;;;;5074986;28;20438;-82
2023/09/09 03:41:13;;;;;;;0.50;0.30;;;18.50;99.90;;;;;;5058248;28;20443;-82
2023/09/09 03:43:40;;;;;;;0.50;0.30;;;18.50;99.90;;;;;;5074543;28;20478;-80
2023/09/09 03:46:07;;;;;;;0.50;0.30;;;18.40;99.90;;;;;;5066280;28;23536;-82
2023/09/09 03:48:34;;;;;;;0.50;0.30;;;18.40;99.90;;;;;;5074142;28;20444;-82
2023/09/09 03:51:01;;;;;;;0.50;0.40;;;18.40;99.90;;;;;;5073931;28;20837;-82
2023/09/09 03:53:28;;;;;;;0.50;0.30;;;18.40;99.90;;;;;;5074164;28;20949;-82
2023/09/09 03:55:55;;;;;;;0.50;0.30;;;18.30;99.90;;;;;;5073869;28;20464;-82
2023/09/09 03:58:24;;;;;;;0.50;0.30;;;18.40;99.90;;;;;;5074039;28;20521;-82
2023/09/09 04:01:05;;;;;;;0.50;0.40;;;18.30;99.90;;;;;;5073727;28;20454;-81
2023/09/09 04:03:34;;;;;;;0.50;0.30;;;18.30;99.90;;;;;;5073551;28;20481;-83
2023/09/09 04:06:03;;;;;;;0.50;0.40;;;18.30;99.90;;;;;;5073148;28;20463;-81
2023/09/09 04:08:31;;;;;;;0.50;0.30;;;18.30;99.90;;;;;;5073672;28;20818;-82
2023/09/09 04:10:57;;;;;;;1.83;1.73;;;18.30;99.90;;;;;;5073398;28;20442;-81
2023/09/09 04:13:25;;;;;;;0.50;0.40;;;18.20;99.90;;;;;;5073657;28;20427;-82
2023/09/09 04:15:54;;;;;;;0.50;0.40;;;18.20;99.90;;;;;;5074036;28;20477;-83
2023/09/09 04:18:20;;;;;;;4.20;4.10;;;18.20;99.90;;;;;;5074825;28;20513;-82
2023/09/09 04:20:47;;;;;;;0.50;0.40;;;18.10;99.90;;;;;;5074450;28;20435;-82
2023/09/09 04:23:14;;;;;;;0.50;0.30;;;18.10;99.90;;;;;;5073605;28;20852;-81
2023/09/09 04:25:41;;;;;;;0.50;0.30;;;18.10;99.90;;;;;;5073401;28;20462;-82
2023/09/09 04:28:09;;;;;;;0.50;0.40;;;18.00;99.90;;;;;;5073110;28;20897;-81
2023/09/09 04:30:38;;;;;;;0.50;0.40;;;18.00;99.90;;;;;;5073755;28;20442;-82
2023/09/09 04:33:05;;;;;;;0.50;0.40;;;18.00;99.90;;;;;;5072762;28;20493;-82
2023/09/09 04:35:32;;;;;;;0.50;0.30;;;18.00;99.90;;;;;;5073204;28;20465;-82
2023/09/09 04:37:59;;;;;;;0.80;0.80;;;18.00;99.90;;;;;;5073155;28;20446;-82
2023/09/09 04:40:25;;;;;;;0.50;0.30;;;18.00;99.90;;;;;;5073187;28;20448;-82
2023/09/09 04:42:52;;;;;;;0.50;0.40;;;18.00;99.90;;;;;;5072944;28;20450;-82
2023/09/09 04:45:19;;;;;;;0.50;0.30;;;18.00;99.90;;;;;;5072909;28;20465;-82
2023/09/09 04:47:47;;;;;;;0.50;0.30;;;18.00;99.90;;;;;;5074432;28;20534;-82
2023/09/09 04:50:15;;;;;;;0.50;0.30;;;18.00;99.90;;;;;;5072283;28;20937;-79
2023/09/09 04:52:42;;;;;;;0.50;0.30;;;18.00;99.90;;;;;;5072427;28;20450;-82
2023/09/09 04:55:09;;;;;;;0.50;0.30;;;18.00;99.90;;;;;;5071688;28;20829;-82
2023/09/09 04:57:36;;;;;;;0.93;0.87;;;17.90;99.90;;;;;;5071753;28;20452;-82
2023/09/09 05:00:06;;;;;;;0.50;0.37;;;17.90;99.90;;;;;;5072083;28;20452;-81
2023/09/09 05:02:33;;;;;;;0.50;0.30;;;17.90;99.90;;;;;;5072398;28;20446;-81
2023/09/09 05:05:04;;;;;;;0.50;0.33;;;17.90;99.90;;;;;;5071642;28;20485;-81
2023/09/09 05:07:31;;;;;;;0.50;0.30;;;17.90;99.90;;;;;;5072245;28;20461;-82
2023/09/09 05:09:58;;;;;;;0.50;0.30;;;17.90;99.90;;;;;;5071851;28;20473;-81
2023/09/09 05:12:25;;;;;;;0.90;0.90;;;17.90;99.90;;;;;;5072304;28;20434;-81
2023/09/09 05:14:52;;;;;;;0.50;0.40;;;17.90;99.90;;;;;;5072141;28;20458;-81
2023/09/09 05:17:18;;;;;;;0.50;0.30;;;17.90;99.90;;;;;;5072214;28;20438;-81
2023/09/09 05:19:45;;;;;;;0.50;0.30;;;17.90;99.90;;;;;;5072325;28;20440;-82
2023/09/09 05:22:13;;;;;;;0.50;0.30;;;17.90;99.90;;;;;;5073004;28;20437;-81
2023/09/09 05:24:40;;;;;;;0.50;0.30;;;17.90;99.90;;;;;;5071758;28;20826;-80
2023/09/09 05:27:07;;;;;;;0.50;0.40;;;17.90;99.90;;;;;;5072752;28;20438;-81
2023/09/09 05:29:34;;;;;;;0.50;0.30;;;18.00;99.90;;;;;;5072335;28;20434;-82
2023/09/09 05:32:00;;;;;;;0.50;0.30;;;18.00;99.90;;;;;;5071999;28;20433;-82
2023/09/09 05:34:27;;;;;;;0.50;0.30;;;18.00;99.90;;;;;;5071590;28;20450;-81
2023/09/09 05:36:54;;;;;;;0.50;0.30;;;18.00;99.90;;;;;;5071861;28;20431;-81
2023/09/09 05:39:22;;;;;;;0.50;0.40;;;18.10;99.90;;;;;;5072045;28;20434;-82
2023/09/09 05:41:49;;;;;;;0.50;0.40;;;18.10;99.90;;;;;;5072338;28;20947;-82
2023/09/09 05:44:15;;;;;;;0.50;0.30;;;18.10;99.90;;;;;;5071634;28;20486;-81
2023/09/09 05:46:42;;;;;;;0.50;0.30;;;18.20;99.90;;;;;;5072137;28;20435;-81
2023/09/09 05:49:09;;;;;;;0.67;0.67;;;18.20;99.90;;;;;;5071917;28;20441;-81
2023/09/09 05:51:36;;;;;;;0.50;0.30;;;18.30;99.90;;;;;;5072222;28;20444;-82
2023/09/09 05:54:03;;;;;;;0.50;0.40;;;18.30;99.90;;;;;;5071250;28;20441;-81
2023/09/09 05:56:31;;;;;;;0.50;0.30;;;18.40;99.90;;;;;;5065408;28;20819;-81
2023/09/09 05:58:58;;;;;;;0.60;0.60;;;18.60;99.90;;;;;;5072600;28;20435;-82
2023/09/09 06:01:24;;;;;;;0.50;0.30;;;18.70;99.90;;;;;;5055694;28;20443;-81
2023/09/09 06:03:54;;;;;;;0.50;0.30;;;19.00;99.90;;;;;;5071797;28;20474;-81
2023/09/09 06:06:21;;;;;;;0.50;0.30;;;19.30;99.90;;;;;;5072032;28;20439;-82
2023/09/09 06:08:48;;;;;;;0.50;0.40;;;19.80;99.90;;;;;;5071349;28;20473;-82
2023/09/09 06:11:15;;;;;;;0.50;0.40;;;20.10;99.90;;;;;;5071749;28;20443;-81
2023/09/09 06:13:43;;;;;;;0.70;0.60;;;20.30;99.90;;;;;;5071899;28;20883;-82
2023/09/09 06:16:10;;;;;;;0.50;0.40;;;20.50;99.90;;;;;;5071644;28;20459;-82
2023/09/09 06:18:37;;;;;;;0.50;0.30;;;20.90;99.90;;;;;;5072264;28;20439;-82
2023/09/09 06:21:04;;;;;;;0.70;0.70;;;21.20;99.90;;;;;;5072257;28;20438;-82
2023/09/09 06:23:30;;;;;;;0.50;0.40;;;21.60;99.90;;;;;;5071771;28;20435;-82
2023/09/09 06:25:57;;;;;;;0.50;0.40;;;22.10;99.90;;;;;;5072614;28;20465;-82
2023/09/09 06:28:24;;;;;;;2.30;2.13;;;22.40;99.90;;;;;;5073622;28;20436;-82
2023/09/09 06:30:52;;;;;;;0.50;0.30;;;22.80;99.90;;;;;;5073440;28;20435;-83
2023/09/09 06:33:19;;;;;;;0.50;0.30;;;23.20;99.90;;;;;;5072264;28;20443;-80
2023/09/09 06:35:49;;;;;;;1.13;1.03;;;23.70;99.90;;;;;;5072623;28;20947;-82
2023/09/09 06:38:16;;;;;;;0.50;0.40;;;24.10;99.90;;;;;;5072123;28;20448;-82
2023/09/09 06:40:44;;;;;;;0.60;0.60;;;24.50;99.90;;;;;;5072504;28;20777;-82
2023/09/09 06:43:11;;;;;;;0.50;0.40;;;24.90;99.90;;;;;;5071307;28;20447;-81
2023/09/09 06:45:38;;;;;;;0.50;0.30;;;25.10;99.90;;;;;;5072226;28;20474;-82
2023/09/09 06:48:07;;;;;;;0.60;0.53;;;25.30;99.90;;;;;;5071556;28;20438;-80
2023/09/09 06:50:33;;;;;;;0.50;0.40;;;25.40;99.90;;;;;;5071776;28;20434;-82
2023/09/09 06:53:00;;;;;;;1.60;0.83;;;25.40;99.90;;;;;;5071635;28;20446;-80
2023/09/09 06:55:27;;;;;;;0.50;0.40;;;25.50;99.90;;;;;;5071317;28;20453;-82
2023/09/09 06:57:54;;;;;;;0.50;0.40;;;25.70;99.90;;;;;;5072139;28;20456;-80
2023/09/09 07:00:21;;;;;;;0.50;0.30;;;25.90;99.90;;;;;;5071818;28;20437;-82
2023/09/09 07:02:47;;;;;;;0.50;0.30;;;26.00;99.90;;;;;;5072141;28;20437;-82
2023/09/09 07:05:17;;;;;;;2.50;2.40;;;26.10;99.90;;;;;;5071456;28;20479;-82
2023/09/09 07:07:43;;;;;;;0.50;0.33;;;26.50;99.90;;;;;;5072024;28;20442;-83
2023/09/09 07:10:11;;;;;;;0.50;0.30;;;26.70;99.90;;;;;;5071801;28;20433;-81
2023/09/09 07:12:38;;;;;;;0.50;0.30;;;27.00;99.90;;;;;;5072531;28;20433;-81
2023/09/09 07:15:05;;;;;;;0.50;0.30;;;27.30;99.90;;;;;;5071341;28;20460;-82
2023/09/09 07:17:32;;;;;;;0.50;0.30;;;27.50;99.90;;;;;;5072259;28;20442;-83
2023/09/09 07:19:59;;;;;;;0.50;0.30;;;27.70;99.90;;;;;;5071597;28;20445;-82
2023/09/09 07:22:27;;;;;;;0.80;0.57;;;27.90;99.90;;;;;;5076479;28;20440;-82
2023/09/09 07:24:54;;;;;;;0.50;0.30;;;28.20;99.90;;;;;;5075305;28;20477;-83
2023/09/09 07:27:20;;;;;;;0.50;0.30;;;28.40;99.90;;;;;;5074938;28;20442;-82
2023/09/09 07:29:47;;;;;;;0.50;0.30;;;28.90;99.90;;;;;;5077242;28;20447;-83
2023/09/09 07:32:14;;;;;;;0.50;0.40;;;29.00;99.90;;;;;;5074845;28;20436;-83
2023/09/09 07:34:41;;;;;;;0.73;0.73;;;28.90;99.90;;;;;;5075656;28;20470;-81
2023/09/09 07:37:07;;;;;;;0.50;0.30;;;29.10;99.90;;;;;;5075034;28;20472;-82
2023/09/09 07:39:46;;;;;;;0.50;0.30;;;29.60;99.90;;;;;;5075838;28;20442;-82
2023/09/09 07:42:13;;;;;;;0.97;0.97;;;29.80;99.90;;;;;;5075598;28;20435;-83
2023/09/09 07:44:40;;;;;;;0.50;0.30;;;30.20;99.90;;;;;;5075810;28;20483;-82
2023/09/09 07:47:07;;;;;;;1.43;1.23;;;30.90;99.90;;;;;;5075417;28;20443;-81
2023/09/09 07:49:34;;;;;;;0.50;0.30;;;31.40;99.90;;;;;;5075543;28;20436;-83
2023/09/09 07:52:01;;;;;;;0.50;0.30;;;31.80;98.10;;;;;;5075924;28;20443;-80
2023/09/09 07:54:28;;;;;;;0.50;0.30;;;32.40;95.70;;;;;;5075843;28;20469;-83
2023/09/09 07:56:56;;;;;;;0.50;0.40;;;32.70;93.20;;;;;;5076086;28;20879;-83
2023/09/09 07:59:23;;;;;;;0.50;0.30;;;33.10;92.10;;;;;;5076211;28;20443;-83
2023/09/09 08:01:49;;;;;;;0.50;0.30;;;33.10;91.30;;;;;;5075913;28;20440;-84
2023/09/09 08:04:16;;;;;;;0.43;0.30;;;33.00;91.30;;;;;;5075805;28;20472;-83
2023/09/09 08:06:43;;;;;;;0.97;0.87;;;33.00;90.50;;;;;;5076077;28;20441;-83
2023/09/09 08:09:10;;;;;;;0.50;0.30;;;33.40;92.20;;;;;;5076006;28;20443;-80
2023/09/09 08:11:37;;;;;;;0.50;0.30;;;34.10;92.80;;;;;;5075670;28;20451;-80
2023/09/09 08:14:05;;;;;;;0.50;0.30;;;34.30;87.80;;;;;;5075660;28;20537;-82
2023/09/09 08:16:32;;;;;;;0.40;0.30;;;34.50;87.90;;;;;;5075578;28;20451;-79
2023/09/09 08:18:59;;;;;;;0.50;0.30;;;34.40;87.10;;;;;;5075781;28;20429;-82
2023/09/09 08:21:26;;;;;;;0.40;0.30;;;34.60;87.00;;;;;;5075695;28;20473;-82
2023/09/09 08:23:53;;;;;;;0.50;0.30;;;35.10;85.80;;;;;;5075661;28;20943;-82
2023/09/09 08:26:20;;;;;;;0.80;0.80;;;35.60;80.90;;;;;;5075961;28;20838;-82
2023/09/09 08:28:47;;;;;;;0.40;0.30;;;35.70;81.10;;;;;;5074878;28;20524;-82
2023/09/09 08:31:15;;;;;;;1.23;1.13;;;35.80;80.90;;;;;;5075013;28;20441;-82
2023/09/09 08:33:41;;;;;;;0.40;0.30;;;36.30;77.90;;;;;;5074477;28;20445;-82
2023/09/09 08:36:08;;;;;;;0.40;0.40;;;36.00;76.60;;;;;;5074916;28;20462;-79
2023/09/09 08:38:35;;;;;;;0.40;0.30;;;35.70;76.70;;;;;;5074617;28;20437;-82
2023/09/09 08:41:05;;;;;;;0.40;0.30;;;35.60;78.10;;;;;;5074891;28;20436;-82
2023/09/09 08:43:50;;;;;;;0.40;0.40;;;35.10;76.90;;;;;;5074503;28;20954;-82
2023/09/09 08:46:20;;;;;;;0.90;0.90;;;35.20;76.50;;;;;;5074305;28;20515;-81
2023/09/09 08:48:50;;;;;;;0.40;0.40;;;35.00;78.30;;;;;;5074958;28;21002;-82
2023/09/09 08:51:19;;;;;;;0.40;0.30;;;35.10;81.20;;;;;;5074916;28;20436;-82
2023/09/09 08:53:47;;;;;;;0.40;0.30;;;35.30;82.10;;;;;;5074617;28;20456;-82
2023/09/09 08:56:15;;;;;;;0.40;0.40;;;35.80;79.00;;;;;;5075342;28;20439;-82
2023/09/09 08:58:42;;;;;;;0.40;0.30;;;36.30;80.30;;;;;;5075276;28;21051;-82
2023/09/09 09:01:09;;;;;;;0.40;0.30;;;36.60;76.70;;;;;;5075222;28;20801;-82
2023/09/09 09:03:38;;;;;;;0.40;0.30;;;36.60;75.20;;;;;;5071616;28;20953;-83
2023/09/09 09:06:06;;;;;;;0.40;0.30;;;36.50;75.70;;;;;;5070140;28;20544;-82
2023/09/09 09:08:33;;;;;;;0.40;0.30;;;37.20;77.10;;;;;;5075536;28;20441;-82
2023/09/09 09:11:04;;;;;;;0.40;0.30;;;37.30;73.80;;;;;;5076528;28;20440;-83
2023/09/09 09:13:32;;;;;;;0.60;0.60;;;37.40;72.40;;;;;;5074436;28;20444;-83
2023/09/09 09:15:59;;;;;;;0.40;0.30;;;37.70;70.90;;;;;;5077009;28;20452;-83
2023/09/09 09:18:26;;;;;;;0.40;0.30;;;37.70;70.40;;;;;;5074744;28;20939;-82
2023/09/09 09:21:05;;;;;;;0.40;0.30;;;37.00;72.30;;;;;;5074879;28;20974;-83
2023/09/09 09:23:32;;;;;;;0.40;0.30;;;37.20;75.60;;;;;;5074613;28;20944;-82
2023/09/09 09:25:59;;;;;;;0.40;0.40;;;37.60;72.60;;;;;;5075230;28;20503;-82
2023/09/09 09:28:29;;;;;;;0.40;0.30;;;37.70;71.50;;;;;;5074836;28;20437;-81
2023/09/09 09:30:56;;;;;;;0.40;0.30;;;37.70;73.30;;;;;;5072927;28;20432;-81
2023/09/09 09:33:24;;;;;;;0.93;0.90;;;37.70;71.90;;;;;;5072386;28;20467;-80
2023/09/09 09:35:51;;;;;;;0.40;0.40;;;38.00;70.60;;;;;;5072503;28;20453;-78
2023/09/09 09:38:19;;;;;;;0.57;0.57;;;38.20;69.50;;;;;;5072612;28;20441;-82
2023/09/09 09:40:46;;;;;;;0.60;0.50;;;38.10;70.10;;;;;;5056831;28;20491;-82
2023/09/09 09:43:23;;;;;;;0.40;0.40;;;38.30;72.10;;;;;;5072808;28;20444;-81
2023/09/09 09:45:50;;;;;;;1.50;1.03;;;38.50;69.20;;;;;;5069192;28;20481;-78
2023/09/09 09:48:26;;;;;;;0.40;0.40;;;38.30;68.10;;;;;;5069395;28;20437;-81
2023/09/09 09:50:54;;;;;;;1.27;1.17;;;38.50;66.70;;;;;;5073228;28;20440;-81
2023/09/09 09:53:22;;;;;;;0.40;0.30;;;38.50;66.70;;;;;;5073359;28;20433;-80
2023/09/09 09:55:51;;;;;;;1.43;0.77;;;38.20;69.60;;;;;;5072901;28;20444;-81
2023/09/09 09:58:22;;;;;;;0.70;0.70;;;38.20;67.20;;;;;;5073176;28;20443;-81
2023/09/09 10:00:50;;;;;;;0.40;0.30;;;37.60;68.50;;;;;;5073491;28;20452;-82
2023/09/09 10:03:22;;;;;;;2.60;2.40;;;37.80;73.50;;;;;;5073571;28;20447;-82
2023/09/09 10:05:53;;;;;;;0.40;0.30;;;38.30;72.30;;;;;;5073240;28;20573;-80
2023/09/09 10:08:27;;;;;;;0.40;0.30;;;38.10;68.80;;;;;;5073682;28;20508;-81
2023/09/09 10:11:02;;;;;;;0.40;0.30;;;38.40;70.00;;;;;;5058689;28;20920;-81
2023/09/09 10:13:35;;;;;;;0.40;0.30;;;39.00;69.70;;;;;;5073473;28;20428;-82
2023/09/09 10:16:03;;;;;;;1.17;1.17;;;39.10;67.60;;;;;;5074273;28;20455;-82
2023/09/09 10:18:30;;;;;;;0.40;0.30;;;38.80;68.30;;;;;;5075080;28;20429;-83
2023/09/09 10:20:57;;;;;;;0.40;0.30;;;39.00;68.50;;;;;;5074622;28;20889;-82
2023/09/09 10:23:26;;;;;;;0.40;0.30;;;39.50;69.70;;;;;;5073530;28;20433;-82
2023/09/09 10:25:54;;;;;;;0.50;0.50;;;40.00;64.70;;;;;;5073415;28;20491;-81
2023/09/09 10:28:22;;;;;;;0.40;0.30;;;39.80;64.20;;;;;;5074751;28;20440;-82
2023/09/09 10:30:49;;;;;;;0.40;0.30;;;39.90;64.10;;;;;;5075827;28;20997;-83
2023/09/09 10:33:19;;;;;;;0.60;0.60;;;39.50;65.20;;;;;;5073672;28;20433;-81
2023/09/09 10:35:50;;;;;;;0.40;0.30;;;39.40;64.20;;;;;;5073580;28;20451;-79
2023/09/09 10:38:18;;;;;;;0.40;0.30;;;38.90;64.60;;;;;;5073603;28;20470;-82
2023/09/09 10:40:48;;;;;;;1.43;1.33;;;38.50;65.00;;;;;;5073298;28;20432;-82
2023/09/09 10:43:15;;;;;;;0.40;0.30;;;38.90;66.20;;;;;;5073520;28;20870;-82
2023/09/09 10:45:43;;;;;;;0.40;0.30;;;39.20;66.90;;;;;;5072951;28;20511;-82
2023/09/09 10:48:11;;;;;;;0.40;0.30;;;38.90;64.40;;;;;;5073569;28;20441;-82
2023/09/09 10:50:42;;;;;;;0.40;0.30;;;38.80;68.90;;;;;;5073697;28;20443;-82
2023/09/09 10:53:22;;;;;;;0.40;0.30;;;39.10;65.20;;;;;;5073514;28;20439;-82
2023/09/09 10:55:52;;;;;;;0.40;0.30;;;39.10;66.80;;;;;;5074582;28;20455;-82
2023/09/09 10:58:20;;;;;;;0.40;0.40;;;39.30;63.90;;;;;;5078281;28;20531;-82
2023/09/09 11:00:49;;;;;;;0.40;0.30;;;39.20;64.70;;;;;;5077760;28;20524;-82
2023/09/09 11:03:19;;;;;;;0.40;0.30;;;39.30;64.70;;;;;;5077345;28;20974;-81
2023/09/09 11:06:00;;;;;;;0.40;0.30;;;39.60;65.20;;;;;;5077698;28;20476;-82
2023/09/09 11:08:32;;;;;;;0.40;0.30;;;39.50;64.50;;;;;;5077685;28;20433;-82
2023/09/09 11:11:12;;;;;;;0.77;0.63;;;39.70;63.50;;;;;;5062988;28;20433;-79
2023/09/09 11:13:53;;;;;;;0.40;0.30;;;39.60;62.50;;;;;;5077186;28;20436;-81
2023/09/09 11:16:31;;;;;;;0.40;0.30;;;40.30;62.90;;;;;;5078954;28;20443;-82
2023/09/09 11:19:00;;;;;;;0.40;0.30;;;40.70;64.40;;;;;;5062295;28;20432;-82
2023/09/09 11:21:28;;;;;;;39.27;2.53;;;40.70;63.00;;;;;;5076548;28;20437;-82
2023/09/09 11:23:57;;;;;;;0.40;0.30;;;40.80;62.20;;;;;;5060796;28;20435;-82
2023/09/09 11:26:25;;;;;;;1.53;1.27;;;40.60;62.70;;;;;;5077076;28;20472;-82
2023/09/09 11:28:54;;;;;;;0.60;0.50;;;40.50;60.90;;;;;;5077427;28;20920;-82
2023/09/09 11:31:21;;;;;;;0.40;0.30;;;39.10;61.10;;;;;;5076576;28;20527;-82
2023/09/09 11:33:48;;;;;;;0.40;0.30;;;38.60;64.20;;;;;;5077037;28;20521;-82
2023/09/09 11:36:18;;;;;;;0.40;0.30;;;38.40;64.30;;;;;;5076802;28;20441;-82
2023/09/09 11:38:45;;;;;;;0.40;0.30;;;38.70;65.20;;;;;;5076196;28;20437;-81
2023/09/09 11:41:19;;;;;;;0.40;0.30;;;38.30;63.30;;;;;;5077325;28;20924;-82
2023/09/09 11:43:57;;;;;;;2.30;1.77;;;38.50;65.70;;;;;;5076099;28;20429;-82
2023/09/09 11:46:24;;;;;;;0.40;0.30;;;38.90;63.50;;;;;;5077059;28;20480;-82
2023/09/09 11:48:51;;;;;;;0.40;0.30;;;38.60;66.20;;;;;;5076856;28;20807;-82
2023/09/09 11:51:18;;;;;;;7.77;7.23;;;38.90;65.40;;;;;;5076242;28;20429;-82
2023/09/09 11:53:46;;;;;;;0.40;0.30;;;38.90;63.60;;;;;;5075903;28;20481;-81
2023/09/09 11:56:13;;;;;;;1.80;1.70;;;39.00;64.70;;;;;;5075755;28;20456;-81
2023/09/09 11:58:40;;;;;;;0.50;0.47;;;38.90;63.90;;;;;;5076386;28;20445;-82
2023/09/09 12:01:10;;;;;;;0.40;0.30;;;39.00;64.20;;;;;;5076391;28;20432;-81
2023/09/09 12:03:37;;;;;;;0.50;0.40;;;38.90;64.40;;;;;;5075898;28;20436;-82
2023/09/09 12:06:07;;;;;;;0.40;0.30;;;38.50;64.70;;;;;;5076611;28;20473;-82
2023/09/09 12:08:34;;;;;;;0.40;0.30;;;38.20;67.10;;;;;;5074866;28;20438;-81
2023/09/09 12:11:04;;;;;;;0.40;0.30;;;38.60;65.00;;;;;;5075899;28;20443;-81
2023/09/09 12:13:31;;;;;;;0.40;0.30;;;38.70;64.00;;;;;;5076050;28;20528;-82
2023/09/09 12:15:59;;;;;;;0.40;0.30;;;38.70;65.20;;;;;;5076177;28;20793;-82
2023/09/09 12:18:27;;;;;;;0.40;0.30;;;38.70;63.30;;;;;;5068907;28;20908;-82
2023/09/09 12:21:01;;;;;;;0.40;0.30;;;38.20;67.20;;;;;;5075484;28;20428;-83
2023/09/09 12:23:29;;;;;;;0.40;0.30;;;38.50;67.10;;;;;;5076278;28;20942;-82
2023/09/09 12:25:56;;;;;;;1.40;0.90;;;39.20;65.70;;;;;;5072839;28;20481;-82
2023/09/09 12:28:23;;;;;;;0.40;0.30;;;39.20;63.90;;;;;;5070550;28;20444;-83
2023/09/09 12:30:51;;;;;;;0.40;0.30;;;39.30;62.90;;;;;;5075449;28;20487;-82
2023/09/09 12:33:18;;;;;;;0.40;0.30;;;39.40;61.80;;;;;;5075841;28;20493;-80
2023/09/09 12:35:47;;;;;;;0.40;0.30;;;39.60;63.20;;;;;;5077304;28;20444;-83
2023/09/09 12:38:15;;;;;;;0.40;0.30;;;40.30;60.50;;;;;;5076060;28;20433;-83
2023/09/09 12:40:50;;;;;;;0.40;0.30;;;40.30;60.70;;;;;;5075573;28;20463;-82
2023/09/09 12:43:18;;;;;;;0.40;0.30;;;40.30;58.50;;;;;;5075254;28;20439;-81
2023/09/09 12:45:47;;;;;;;0.40;0.30;;;40.60;57.60;;;;;;5075895;28;20477;-83
2023/09/09 12:48:14;;;;;;;0.40;0.30;;;40.60;56.90;;;;;;5075361;28;20441;-83
2023/09/09 12:50:41;;;;;;;0.40;0.30;;;40.60;55.60;;;;;;5075810;28;20437;-82